createdAt,value
2022-08-28T00:01:27.554Z,46.46
2022-08-28T00:03:55.760Z,46.53
2022-08-28T00:06:23.480Z,46.22
2022-08-28T00:08:51.182Z,46.44
2022-08-28T00:11:21.195Z,46.26
2022-08-28T00:13:49.198Z,46.59
2022-08-28T00:16:18.136Z,46.60
2022-08-28T00:18:47.606Z,46.55
2022-08-28T00:21:16.038Z,46.40
2022-08-28T00:23:44.040Z,46.50
2022-08-28T00:26:32.280Z,46.53
2022-08-28T00:29:01.117Z,46.46
2022-08-28T00:31:28.972Z,46.48
2022-08-28T00:33:56.719Z,46.56
2022-08-28T00:36:24.557Z,46.55
2022-08-28T00:38:52.350Z,46.39
2022-08-28T00:41:24.601Z,46.33
2022-08-28T00:44:05.965Z,46.64
2022-08-28T00:46:35.169Z,46.67
2022-08-28T00:49:02.994Z,46.83
2022-08-28T00:51:48.619Z,46.67
2022-08-28T00:54:16.699Z,46.54
2022-08-28T00:56:44.776Z,46.23
2022-08-28T00:59:14.424Z,46.30
2022-08-28T01:01:43.726Z,46.04
2022-08-28T01:04:16.944Z,46.46
2022-08-28T01:06:45.075Z,46.52
2022-08-28T01:09:15.155Z,46.31
2022-08-28T01:11:49.468Z,46.43
2022-08-28T01:14:19.938Z,46.55
2022-08-28T01:16:52.833Z,46.38
2022-08-28T01:19:23.114Z,46.32
2022-08-28T01:21:54.790Z,46.59
2022-08-28T01:24:24.402Z,46.61
2022-08-28T01:26:52.280Z,46.70
2022-08-28T01:29:20.863Z,46.52
2022-08-28T01:31:48.895Z,46.53
2022-08-28T01:34:16.697Z,46.51
2022-08-28T01:36:44.477Z,46.60
2022-08-28T01:39:13.980Z,46.23
2022-08-28T01:41:45.434Z,46.51
2022-08-28T01:44:14.337Z,46.71
2022-08-28T01:46:46.338Z,46.39
2022-08-28T01:49:14.221Z,46.64
2022-08-28T01:54:10.606Z,46.54
2022-08-28T01:56:39.808Z,46.70
2022-08-28T02:01:37.148Z,46.27
2022-08-28T02:09:00.835Z,46.48
2022-08-28T02:11:29.409Z,46.46
2022-08-28T02:13:57.211Z,46.35
2022-08-28T02:16:26.029Z,46.38
2022-08-28T02:18:55.111Z,46.68
2022-08-28T02:21:22.787Z,46.54
2022-08-28T02:23:50.512Z,46.50
2022-08-28T02:26:18.283Z,46.48
2022-08-28T02:28:46.139Z,46.47
2022-08-28T02:31:13.940Z,46.35
2022-08-28T02:33:43.583Z,46.59
2022-08-28T02:36:14.633Z,46.41
2022-08-28T02:38:42.580Z,46.61
2022-08-28T02:41:11.015Z,46.49
2022-08-28T02:43:39.106Z,46.66
2022-08-28T02:46:07.401Z,46.54
2022-08-28T02:48:36.375Z,46.59
2022-08-28T02:51:05.612Z,46.28
2022-08-28T02:53:35.109Z,46.46
2022-08-28T02:56:03.141Z,46.37
2022-08-28T02:58:32.770Z,46.29
2022-08-28T03:01:01.673Z,46.28
2022-08-28T03:03:31.104Z,46.70
2022-08-28T03:05:59.860Z,46.29
2022-08-28T03:08:28.084Z,46.31
2022-08-28T03:10:57.487Z,46.25
2022-08-28T03:13:26.945Z,46.43
2022-08-28T03:15:55.682Z,46.37
2022-08-28T03:18:24.492Z,46.30
2022-08-28T03:20:53.762Z,46.63
2022-08-28T03:23:30.210Z,46.58
2022-08-28T03:26:00.329Z,46.68
2022-08-28T03:28:29.099Z,46.62
2022-08-28T03:30:57.816Z,46.34
2022-08-28T03:33:26.831Z,46.63
2022-08-28T03:35:57.851Z,46.73
2022-08-28T03:38:25.893Z,46.34
2022-08-28T03:40:53.734Z,46.46
2022-08-28T03:43:23.980Z,46.44
2022-08-28T03:45:53.098Z,46.70
2022-08-28T03:48:21.105Z,46.65
2022-08-28T03:50:48.995Z,46.39
2022-08-28T03:53:17.055Z,46.71
2022-08-28T03:55:44.787Z,46.48
2022-08-28T03:58:19.070Z,46.59
2022-08-28T04:00:48.618Z,46.56
2022-08-28T04:03:16.415Z,46.38
2022-08-28T04:05:45.604Z,46.53
2022-08-28T04:08:15.914Z,46.72
2022-08-28T04:10:44.086Z,46.77
2022-08-28T04:13:12.344Z,46.72
2022-08-28T04:15:40.962Z,46.43
2022-08-28T04:18:10.110Z,46.67
2022-08-28T04:20:38.302Z,46.74
2022-08-28T04:23:07.865Z,46.64
2022-08-28T04:25:35.667Z,46.46
2022-08-28T04:28:03.452Z,46.79
2022-08-28T04:30:31.239Z,46.55
2022-08-28T04:32:59.495Z,46.68
2022-08-28T04:35:29.066Z,46.68
2022-08-28T04:37:58.961Z,46.64
2022-08-28T04:40:26.999Z,46.69
2022-08-28T04:42:54.727Z,46.62
2022-08-28T04:45:22.579Z,46.55
2022-08-28T04:47:50.269Z,46.64
2022-08-28T04:50:18.068Z,46.61
2022-08-28T04:52:47.186Z,46.88
2022-08-28T04:55:15.474Z,46.65
2022-08-28T04:57:46.038Z,46.62
2022-08-28T05:00:14.028Z,46.92
2022-08-28T05:02:41.753Z,46.49
2022-08-28T05:05:09.909Z,46.52
2022-08-28T05:07:37.659Z,46.78
2022-08-28T05:10:08.488Z,46.57
2022-08-28T05:12:36.904Z,46.87
2022-08-28T05:15:08.298Z,46.89
2022-08-28T05:17:36.278Z,46.58
2022-08-28T05:20:05.832Z,46.71
2022-08-28T05:22:33.858Z,46.57
2022-08-28T05:25:02.044Z,46.59
2022-08-28T05:27:31.088Z,46.90
2022-08-28T05:30:01.904Z,46.77
2022-08-28T05:32:30.032Z,46.65
2022-08-28T05:34:57.779Z,46.97
2022-08-28T05:37:25.608Z,46.65
2022-08-28T05:39:53.374Z,47.00
2022-08-28T05:42:21.099Z,46.86
2022-08-28T05:44:54.637Z,46.81
2022-08-28T05:47:22.545Z,46.75
2022-08-28T05:49:50.840Z,46.74
2022-08-28T05:52:20.184Z,46.94
2022-08-28T05:54:48.580Z,46.81
2022-08-28T05:57:16.354Z,46.75
2022-08-28T05:59:44.134Z,46.99
2022-08-28T06:02:13.256Z,47.08
2022-08-28T06:04:41.020Z,47.26
2022-08-28T06:07:12.111Z,47.13
2022-08-28T06:09:39.907Z,47.07
2022-08-28T06:12:07.733Z,47.25
2022-08-28T06:14:36.162Z,47.34
2022-08-28T06:17:04.964Z,47.29
2022-08-28T06:19:39.296Z,47.06
2022-08-28T06:22:09.723Z,47.02
2022-08-28T06:24:37.489Z,47.12
2022-08-28T06:27:05.890Z,47.06
2022-08-28T06:29:33.594Z,47.23
2022-08-28T06:32:04.464Z,47.08
2022-08-28T06:34:32.304Z,47.16
2022-08-28T06:37:01.337Z,47.30
2022-08-28T06:39:29.229Z,47.50
2022-08-28T06:41:56.886Z,47.35
2022-08-28T06:44:24.899Z,47.18
2022-08-28T06:46:54.360Z,47.34
2022-08-28T06:49:22.295Z,47.46
2022-08-28T06:51:50.339Z,47.54
2022-08-28T06:54:22.963Z,47.14
2022-08-28T06:56:51.459Z,47.21
2022-08-28T06:59:19.497Z,47.57
2022-08-28T07:01:47.419Z,47.40
2022-08-28T07:04:15.496Z,47.51
2022-08-28T07:06:46.905Z,47.19
2022-08-28T07:09:15.368Z,47.30
2022-08-28T07:11:47.334Z,47.06
2022-08-28T07:14:15.353Z,47.44
2022-08-28T07:16:44.471Z,47.43
2022-08-28T07:19:13.309Z,47.59
2022-08-28T07:21:42.639Z,47.17
2022-08-28T07:24:11.160Z,47.02
2022-08-28T07:26:40.911Z,47.18
2022-08-28T07:29:11.625Z,47.57
2022-08-28T07:31:40.972Z,47.51
2022-08-28T07:34:09.471Z,47.80
2022-08-28T07:36:37.660Z,47.78
2022-08-28T07:39:07.341Z,47.65
2022-08-28T07:41:37.410Z,47.46
2022-08-28T07:44:22.757Z,47.51
2022-08-28T07:46:54.010Z,47.70
2022-08-28T07:49:21.738Z,47.41
2022-08-28T07:51:49.628Z,47.87
2022-08-28T07:56:49.428Z,48.00
2022-08-28T07:59:19.419Z,48.06
2022-08-28T08:01:50.695Z,46.60
2022-08-28T08:04:20.979Z,45.34
2022-08-28T08:06:48.771Z,45.44
2022-08-28T08:09:17.780Z,44.98
2022-08-28T08:11:46.072Z,44.87
2022-08-28T08:14:14.921Z,44.94
2022-08-28T08:16:43.834Z,44.86
2022-08-28T08:19:13.960Z,44.09
2022-08-28T08:21:43.750Z,44.25
2022-08-28T08:24:13.027Z,44.59
2022-08-28T08:26:58.846Z,44.33
2022-08-28T08:29:29.219Z,44.56
2022-08-28T08:31:58.131Z,44.65
2022-08-28T08:34:25.948Z,44.63
2022-08-28T08:36:55.375Z,44.63
2022-08-28T08:39:23.186Z,44.49
2022-08-28T08:41:52.684Z,44.45
2022-08-28T08:44:33.979Z,44.71
2022-08-28T08:47:11.786Z,44.66
2022-08-28T08:49:43.211Z,44.39
2022-08-28T08:52:22.604Z,44.50
2022-08-28T08:54:59.348Z,44.28
2022-08-28T08:57:28.173Z,44.25
2022-08-28T08:59:55.979Z,44.38
2022-08-28T09:02:31.338Z,44.00
2022-08-28T09:05:02.763Z,43.89
2022-08-28T09:07:39.623Z,44.14
2022-08-28T09:10:11.087Z,44.24
2022-08-28T09:12:44.039Z,44.33
2022-08-28T09:15:14.897Z,44.24
2022-08-28T09:17:44.818Z,43.89
2022-08-28T09:20:14.967Z,43.79
2022-08-28T09:22:46.058Z,43.84
2022-08-28T09:25:15.199Z,43.90
2022-08-28T09:27:46.897Z,43.88
2022-08-28T09:30:14.882Z,44.11
2022-08-28T09:32:44.335Z,44.25
2022-08-28T09:35:16.424Z,44.27
2022-08-28T09:37:45.820Z,43.75
2022-08-28T09:40:19.777Z,43.47
2022-08-28T09:43:19.623Z,43.65
2022-08-28T09:45:52.743Z,43.45
2022-08-28T09:48:21.393Z,43.25
2022-08-28T09:50:58.972Z,43.18
2022-08-28T09:53:30.746Z,42.98
2022-08-28T09:56:03.706Z,43.20
2022-08-28T09:58:34.822Z,43.18
2022-08-28T10:01:06.709Z,43.24
2022-08-28T10:03:38.679Z,43.05
2022-08-28T10:06:10.483Z,42.73
2022-08-28T10:08:49.616Z,42.40
2022-08-28T10:11:20.049Z,42.15
2022-08-28T10:13:51.611Z,42.65
2022-08-28T10:16:24.728Z,42.68
2022-08-28T10:18:57.351Z,42.93
2022-08-28T10:21:28.884Z,42.40
2022-08-28T10:24:16.586Z,42.97
2022-08-28T10:26:59.473Z,42.99
2022-08-28T10:29:34.380Z,42.98
2022-08-28T10:32:12.284Z,42.56
2022-08-28T10:34:47.971Z,42.66
2022-08-28T10:37:24.335Z,42.38
2022-08-28T10:39:57.751Z,42.05
2022-08-28T10:42:33.756Z,42.33
2022-08-28T10:45:06.829Z,42.68
2022-08-28T10:47:36.075Z,42.26
2022-08-28T10:50:08.151Z,42.68
2022-08-28T10:52:39.037Z,42.50
2022-08-28T10:55:11.812Z,42.48
2022-08-28T10:57:42.903Z,42.23
2022-08-28T11:00:12.932Z,41.52
2022-08-28T11:02:41.929Z,41.79
2022-08-28T11:05:10.743Z,41.82
2022-08-28T11:07:41.507Z,42.35
2022-08-28T11:10:25.424Z,42.20
2022-08-28T11:12:53.535Z,41.95
2022-08-28T11:15:40.894Z,41.96
2022-08-28T11:18:26.221Z,41.59
2022-08-28T11:20:57.884Z,41.71
2022-08-28T11:23:38.381Z,42.27
2022-08-28T11:26:10.304Z,41.60
2022-08-28T11:28:42.999Z,41.67
2022-08-28T11:31:31.583Z,41.79
2022-08-28T11:34:00.953Z,41.67
2022-08-28T11:36:47.432Z,41.82
2022-08-28T11:39:22.200Z,41.70
2022-08-28T11:42:08.364Z,42.08
2022-08-28T11:44:44.787Z,42.57
2022-08-28T11:47:31.176Z,41.80
2022-08-28T11:50:03.916Z,41.99
2022-08-28T11:52:42.448Z,41.70
2022-08-28T11:55:18.086Z,41.76
2022-08-28T11:57:53.175Z,41.79
2022-08-28T12:00:24.545Z,41.92
2022-08-28T12:02:54.853Z,41.74
2022-08-28T12:05:49.901Z,41.45
2022-08-28T12:08:36.217Z,41.33
2022-08-28T12:11:04.004Z,41.35
2022-08-28T12:13:45.981Z,41.44
2022-08-28T12:16:15.854Z,41.08
2022-08-28T12:19:03.988Z,41.32
2022-08-28T12:21:36.421Z,40.58
2022-08-28T12:24:09.845Z,41.20
2022-08-28T12:26:44.882Z,41.25
2022-08-28T12:29:26.826Z,41.27
2022-08-28T12:32:28.559Z,41.01
2022-08-28T12:35:11.069Z,40.99
2022-08-28T12:37:52.711Z,40.88
2022-08-28T12:40:23.095Z,40.39
2022-08-28T12:42:55.197Z,40.36
2022-08-28T12:45:25.863Z,40.22
2022-08-28T12:47:56.131Z,40.49
2022-08-28T12:50:28.844Z,40.37
2022-08-28T12:52:57.886Z,40.09
2022-08-28T12:55:25.712Z,39.52
2022-08-28T12:57:53.972Z,39.08
2022-08-28T13:00:23.077Z,39.04
2022-08-28T13:02:53.212Z,39.45
2022-08-28T13:05:29.046Z,39.70
2022-08-28T13:07:57.425Z,39.89
2022-08-28T13:10:26.502Z,39.72
2022-08-28T13:12:58.803Z,39.87
2022-08-28T13:15:53.474Z,40.27
2022-08-28T13:18:39.966Z,40.64
2022-08-28T13:21:32.785Z,40.29
2022-08-28T13:24:02.920Z,40.22
2022-08-28T13:26:32.882Z,39.99
2022-08-28T13:29:01.708Z,39.15
2022-08-28T13:31:31.377Z,39.34
2022-08-28T13:34:10.371Z,39.22
2022-08-28T13:36:45.452Z,39.65
2022-08-28T13:39:14.775Z,39.90
2022-08-28T13:41:44.152Z,40.10
2022-08-28T13:44:22.107Z,40.16
2022-08-28T13:46:49.802Z,40.25
2022-08-28T13:49:17.660Z,40.12
2022-08-28T13:51:47.148Z,39.95
2022-08-28T13:54:16.097Z,39.08
2022-08-28T13:56:44.083Z,38.98
2022-08-28T13:59:11.859Z,39.14
2022-08-28T14:01:57.802Z,38.92
2022-08-28T14:04:26.514Z,39.39
2022-08-28T14:06:55.632Z,39.53
2022-08-28T14:09:23.370Z,40.39
2022-08-28T14:11:51.581Z,40.56
2022-08-28T14:14:19.330Z,40.64
2022-08-28T14:16:47.321Z,40.54
2022-08-28T14:19:15.163Z,40.47
2022-08-28T14:21:42.884Z,40.16
2022-08-28T14:24:12.337Z,40.13
2022-08-28T14:26:40.162Z,40.37
2022-08-28T14:29:08.944Z,40.57
2022-08-28T14:31:37.174Z,41.15
2022-08-28T14:34:06.026Z,40.83
2022-08-28T14:36:33.834Z,40.76
2022-08-28T14:39:06.063Z,40.83
2022-08-28T14:44:03.837Z,39.63
2022-08-28T14:46:33.094Z,39.31
2022-08-28T14:49:01.689Z,39.26
2022-08-28T14:51:31.059Z,38.93
2022-08-28T14:53:59.756Z,38.86
2022-08-28T14:56:28.477Z,38.64
2022-08-28T14:58:59.973Z,38.74
2022-08-28T15:01:36.261Z,39.51
2022-08-28T15:04:09.828Z,39.57
2022-08-28T15:06:37.937Z,39.09
2022-08-28T15:09:05.781Z,39.05
2022-08-28T15:11:35.413Z,39.21
2022-08-28T15:14:03.272Z,39.22
2022-08-28T15:16:33.779Z,39.49
2022-08-28T15:19:02.071Z,39.29
2022-08-28T15:21:32.174Z,39.29
2022-08-28T15:24:00.837Z,39.21
2022-08-28T15:26:28.975Z,38.91
2022-08-28T15:29:02.166Z,38.21
2022-08-28T15:31:30.203Z,37.76
2022-08-28T15:33:59.395Z,37.61
2022-08-28T15:36:27.090Z,37.53
2022-08-28T15:39:12.428Z,37.89
2022-08-28T15:41:40.216Z,38.02
2022-08-28T15:44:10.971Z,38.57
2022-08-28T15:46:41.268Z,38.69
2022-08-28T15:49:10.457Z,38.44
2022-08-28T15:51:39.606Z,38.88
2022-08-28T15:54:07.299Z,38.97
2022-08-28T15:56:35.078Z,38.74
2022-08-28T15:59:02.803Z,38.97
2022-08-28T16:01:30.468Z,38.52
2022-08-28T16:03:58.179Z,38.43
2022-08-28T16:06:28.926Z,38.55
2022-08-28T16:08:56.870Z,38.30
2022-08-28T16:11:24.690Z,38.28
2022-08-28T16:13:52.824Z,37.88
2022-08-28T16:16:21.060Z,38.05
2022-08-28T16:18:48.798Z,38.00
2022-08-28T16:21:16.946Z,38.13
2022-08-28T16:23:46.031Z,38.28
2022-08-28T16:26:15.880Z,38.36
2022-08-28T16:28:44.719Z,38.14
2022-08-28T16:31:19.449Z,37.99
2022-08-28T16:33:48.819Z,38.33
2022-08-28T16:36:18.594Z,38.17
2022-08-28T16:38:49.165Z,38.38
2022-08-28T16:41:28.285Z,38.29
2022-08-28T16:43:57.980Z,38.64
2022-08-28T16:46:26.847Z,38.97
2022-08-28T16:48:55.316Z,39.26
2022-08-28T16:51:26.815Z,39.39
2022-08-28T16:53:56.433Z,39.26
2022-08-28T16:56:25.020Z,39.48
2022-08-28T16:58:53.410Z,39.80
2022-08-28T17:01:24.140Z,39.70
2022-08-28T17:03:52.544Z,39.55
2022-08-28T17:06:23.373Z,39.57
2022-08-28T17:08:55.896Z,39.44
2022-08-28T17:11:26.338Z,39.21
2022-08-28T17:13:54.325Z,39.14
2022-08-28T17:16:22.867Z,38.88
2022-08-28T17:18:52.539Z,39.18
2022-08-28T17:21:38.335Z,39.04
2022-08-28T17:24:06.839Z,38.98
2022-08-28T17:26:35.999Z,38.89
2022-08-28T17:29:03.968Z,39.29
2022-08-28T17:31:31.782Z,39.31
2022-08-28T17:33:59.604Z,39.09
2022-08-28T17:36:33.737Z,39.25
2022-08-28T17:39:02.598Z,39.13
2022-08-28T17:41:30.365Z,39.53
2022-08-28T17:43:59.514Z,39.48
2022-08-28T17:46:27.240Z,39.16
2022-08-28T17:48:55.745Z,39.38
2022-08-28T17:51:41.816Z,39.54
2022-08-28T17:54:11.016Z,39.98
2022-08-28T17:56:39.011Z,39.94
2022-08-28T17:59:08.186Z,40.21
2022-08-28T18:01:36.215Z,40.79
2022-08-28T18:04:05.187Z,40.63
2022-08-28T18:06:33.230Z,40.77
2022-08-28T18:09:01.010Z,40.59
2022-08-28T18:11:28.798Z,40.99
2022-08-28T18:13:56.486Z,41.12
2022-08-28T18:16:30.937Z,41.25
2022-08-28T18:18:59.539Z,41.45
2022-08-28T18:21:27.500Z,41.68
2022-08-28T18:23:55.215Z,41.69
2022-08-28T18:26:23.009Z,42.00
2022-08-28T18:28:50.947Z,42.26
2022-08-28T18:31:19.164Z,42.40
2022-08-28T18:33:48.346Z,42.35
2022-08-28T18:36:17.107Z,42.78
2022-08-28T18:38:45.536Z,42.88
2022-08-28T18:41:13.328Z,42.98
2022-08-28T18:43:41.987Z,42.93
2022-08-28T18:46:10.231Z,43.27
2022-08-28T18:48:38.707Z,43.39
2022-08-28T18:51:08.737Z,43.40
2022-08-28T18:53:36.612Z,43.41
2022-08-28T18:56:05.465Z,43.65
2022-08-28T18:58:33.241Z,43.53
2022-08-28T19:01:02.192Z,43.91
2022-08-28T19:03:30.151Z,44.11
2022-08-28T19:05:57.944Z,43.92
2022-08-28T19:08:27.430Z,44.13
2022-08-28T19:10:55.496Z,44.21
2022-08-28T19:13:23.287Z,44.07
2022-08-28T19:15:52.527Z,44.38
2022-08-28T19:18:20.974Z,45.00
2022-08-28T19:20:49.019Z,44.91
2022-08-28T19:23:17.798Z,45.28
2022-08-28T19:25:48.441Z,45.28
2022-08-28T19:28:16.250Z,45.49
2022-08-28T19:30:44.081Z,45.57
2022-08-28T19:33:12.617Z,45.25
2022-08-28T19:35:40.313Z,45.58
2022-08-28T19:38:08.196Z,45.61
2022-08-28T19:40:35.973Z,45.13
2022-08-28T19:43:05.947Z,45.40
2022-08-28T19:45:34.099Z,45.25
2022-08-28T19:48:01.847Z,45.36
2022-08-28T19:50:29.628Z,45.16
2022-08-28T19:52:57.321Z,45.07
2022-08-28T19:55:26.138Z,45.18
2022-08-28T19:57:54.183Z,45.33
2022-08-28T20:00:24.627Z,45.37
2022-08-28T20:02:52.690Z,45.54
2022-08-28T20:05:21.341Z,45.59
2022-08-28T20:07:49.015Z,45.86
2022-08-28T20:10:17.439Z,45.60
2022-08-28T20:12:48.255Z,45.79
2022-08-28T20:15:18.601Z,45.97
2022-08-28T20:17:49.688Z,46.08
2022-08-28T20:20:18.798Z,45.94
2022-08-28T20:22:46.495Z,46.14
2022-08-28T20:25:15.589Z,45.92
2022-08-28T20:27:43.277Z,46.08
2022-08-28T20:30:11.923Z,46.09
2022-08-28T20:32:41.572Z,46.03
2022-08-28T20:35:12.243Z,46.38
2022-08-28T20:37:44.701Z,46.52
2022-08-28T20:40:14.477Z,46.60
2022-08-28T20:42:42.277Z,46.89
2022-08-28T20:45:10.393Z,46.97
2022-08-28T20:47:38.324Z,46.79
2022-08-28T20:50:06.495Z,46.91
2022-08-28T20:52:35.654Z,47.17
2022-08-28T20:55:03.451Z,47.31
2022-08-28T20:57:31.188Z,47.23
2022-08-28T21:00:02.246Z,47.35
2022-08-28T21:02:33.246Z,47.69
2022-08-28T21:05:01.087Z,47.57
2022-08-28T21:07:28.939Z,47.79
2022-08-28T21:10:06.918Z,47.86
2022-08-28T21:12:36.042Z,47.91
2022-08-28T21:15:04.019Z,48.03
2022-08-28T21:17:31.803Z,48.02
2022-08-28T21:20:00.972Z,48.29
2022-08-28T21:22:29.835Z,48.53
2022-08-28T21:24:59.010Z,48.34
2022-08-28T21:27:26.882Z,48.64
2022-08-28T21:29:55.948Z,48.44
2022-08-28T21:32:23.668Z,48.46
2022-08-28T21:34:52.745Z,48.72
2022-08-28T21:37:20.575Z,48.87
2022-08-28T21:39:48.665Z,48.85
2022-08-28T21:42:17.713Z,48.75
2022-08-28T21:44:48.314Z,49.02
2022-08-28T21:47:21.427Z,48.91
2022-08-28T21:49:50.640Z,49.02
2022-08-28T21:52:18.854Z,49.30
2022-08-28T21:54:46.595Z,49.13
2022-08-28T21:57:14.445Z,49.52
2022-08-28T21:59:43.930Z,49.35
2022-08-28T22:02:11.657Z,49.38
2022-08-28T22:04:39.611Z,48.38
2022-08-28T22:07:07.551Z,48.99
2022-08-28T22:09:35.340Z,49.11
2022-08-28T22:12:03.204Z,49.21
2022-08-28T22:14:30.941Z,49.85
2022-08-28T22:16:59.981Z,49.74
2022-08-28T22:19:27.808Z,49.81
2022-08-28T22:22:13.232Z,49.47
2022-08-28T22:24:41.081Z,49.61
2022-08-28T22:27:10.573Z,49.78
2022-08-28T22:29:38.376Z,49.77
2022-08-28T22:32:08.396Z,50.00
2022-08-28T22:34:38.912Z,49.98
2022-08-28T22:37:06.692Z,49.93
2022-08-28T22:39:34.410Z,50.10
2022-08-28T22:42:02.208Z,50.03
2022-08-28T22:44:29.858Z,50.15
2022-08-28T22:46:57.942Z,50.22
2022-08-28T22:49:27.048Z,50.40
2022-08-28T22:51:54.829Z,50.34
2022-08-28T22:54:22.541Z,50.02
2022-08-28T22:56:50.387Z,50.20
2022-08-28T22:59:18.645Z,50.49
2022-08-28T23:01:46.668Z,50.54
2022-08-28T23:04:14.477Z,50.29
2022-08-28T23:06:43.637Z,50.17
2022-08-28T23:09:11.306Z,49.98
2022-08-28T23:11:39.062Z,50.21
2022-08-28T23:14:06.820Z,50.52
2022-08-28T23:16:35.357Z,50.48
2022-08-28T23:19:08.681Z,50.05
2022-08-28T23:21:40.958Z,50.35
2022-08-28T23:24:13.605Z,50.08
2022-08-28T23:26:41.455Z,50.02
2022-08-28T23:29:09.726Z,50.23
2022-08-28T23:31:37.948Z,50.09
2022-08-28T23:34:06.238Z,49.84
2022-08-28T23:36:35.850Z,50.12
2022-08-28T23:39:04.809Z,49.98
2022-08-28T23:41:34.056Z,50.05
2022-08-28T23:44:06.436Z,50.05
2022-08-28T23:46:36.529Z,49.63
2022-08-28T23:49:04.286Z,50.06
2022-08-28T23:51:32.689Z,49.81
2022-08-28T23:54:00.398Z,49.86
2022-08-28T23:56:28.389Z,49.87
2022-08-28T23:58:57.451Z,49.97
